sensor_id;sensor_type;location;lat;lon;timestamp;pressure;altitude;pressure_sealevel;temperature;humidity
20115;BME280;10218;42.874;25.320;2023-12-28T00:02:09;98285.69;;;3.98;100.00
20115;BME280;10218;42.874;25.320;2023-12-28T00:04:37;98294.31;;;3.74;100.00
20115;BME280;10218;42.874;25.320;2023-12-28T00:07:04;98296.06;;;3.61;100.00
20115;BME280;10218;42.874;25.320;2023-12-28T00:09:31;98289.38;;;3.43;100.00
20115;BME280;10218;42.874;25.320;2023-12-28T00:11:59;98290.59;;;3.64;100.00
20115;BME280;10218;42.874;25.320;2023-12-28T00:14:26;98296.91;;;3.49;100.00
20115;BME280;10218;42.874;25.320;2023-12-28T00:16:53;98299.97;;;3.56;100.00
20115;BME280;10218;42.874;25.320;2023-12-28T00:19:22;98304.44;;;3.55;100.00
20115;BME280;10218;42.874;25.320;2023-12-28T00:21:49;98293.66;;;3.58;100.00
20115;BME280;10218;42.874;25.320;2023-12-28T00:24:20;98293.09;;;3.53;100.00
20115;BME280;10218;42.874;25.320;2023-12-28T00:26:47;98300.81;;;4.08;100.00
20115;BME280;10218;42.874;25.320;2023-12-28T00:29:14;98300.22;;;4.55;100.00
20115;BME280;10218;42.874;25.320;2023-12-28T00:31:42;98294.69;;;4.58;100.00
20115;BME280;10218;42.874;25.320;2023-12-28T00:34:09;98299.06;;;4.47;100.00
20115;BME280;10218;42.874;25.320;2023-12-28T00:36:38;98306.03;;;4.35;100.00
20115;BME280;10218;42.874;25.320;2023-12-28T00:39:06;98306.88;;;4.48;100.00
20115;BME280;10218;42.874;25.320;2023-12-28T00:41:33;98303.91;;;4.53;100.00
20115;BME280;10218;42.874;25.320;2023-12-28T00:44:00;98304.88;;;4.39;100.00
20115;BME280;10218;42.874;25.320;2023-12-28T00:46:29;98303.44;;;3.56;100.00
20115;BME280;10218;42.874;25.320;2023-12-28T00:48:57;98304.75;;;3.63;100.00
20115;BME280;10218;42.874;25.320;2023-12-28T00:51:24;98312.66;;;4.03;100.00
20115;BME280;10218;42.874;25.320;2023-12-28T00:53:51;98308.53;;;3.99;100.00
20115;BME280;10218;42.874;25.320;2023-12-28T00:56:19;98311.81;;;4.02;100.00
20115;BME280;10218;42.874;25.320;2023-12-28T00:58:48;98314.00;;;3.83;100.00
20115;BME280;10218;42.874;25.320;2023-12-28T01:01:15;98322.69;;;3.98;100.00
20115;BME280;10218;42.874;25.320;2023-12-28T01:03:42;98321.78;;;4.24;100.00
20115;BME280;10218;42.874;25.320;2023-12-28T01:06:10;98306.34;;;4.43;100.00
20115;BME280;10218;42.874;25.320;2023-12-28T01:08:38;98311.84;;;4.40;100.00
20115;BME280;10218;42.874;25.320;2023-12-28T01:11:06;98313.59;;;4.02;100.00
20115;BME280;10218;42.874;25.320;2023-12-28T01:13:33;98317.81;;;3.92;100.00
20115;BME280;10218;42.874;25.320;2023-12-28T01:16:05;98311.22;;;4.24;100.00
20115;BME280;10218;42.874;25.320;2023-12-28T01:18:33;98302.75;;;4.19;100.00
20115;BME280;10218;42.874;25.320;2023-12-28T01:21:00;98297.28;;;3.82;100.00
20115;BME280;10218;42.874;25.320;2023-12-28T01:23:28;98307.00;;;3.42;100.00
20115;BME280;10218;42.874;25.320;2023-12-28T01:25:55;98296.06;;;3.61;100.00
20115;BME280;10218;42.874;25.320;2023-12-28T01:28:23;98311.34;;;3.43;100.00
20115;BME280;10218;42.874;25.320;2023-12-28T01:30:51;98317.28;;;3.86;100.00
20115;BME280;10218;42.874;25.320;2023-12-28T01:33:18;98313.50;;;4.03;100.00
20115;BME280;10218;42.874;25.320;2023-12-28T01:35:45;98315.13;;;3.66;100.00
20115;BME280;10218;42.874;25.320;2023-12-28T01:38:13;98309.56;;;3.44;100.00
20115;BME280;10218;42.874;25.320;2023-12-28T01:40:44;98322.50;;;3.61;100.00
20115;BME280;10218;42.874;25.320;2023-12-28T01:43:12;98322.47;;;3.49;100.00
20115;BME280;10218;42.874;25.320;2023-12-28T01:45:41;98317.22;;;3.61;100.00
20115;BME280;10218;42.874;25.320;2023-12-28T01:48:08;98314.34;;;3.25;100.00
20115;BME280;10218;42.874;25.320;2023-12-28T01:50:36;98320.19;;;3.16;100.00
20115;BME280;10218;42.874;25.320;2023-12-28T01:53:04;98318.28;;;3.32;100.00
20115;BME280;10218;42.874;25.320;2023-12-28T01:55:34;98309.63;;;3.16;100.00
20115;BME280;10218;42.874;25.320;2023-12-28T01:58:02;98311.34;;;3.17;100.00
20115;BME280;10218;42.874;25.320;2023-12-28T02:00:30;98314.34;;;3.25;100.00
20115;BME280;10218;42.874;25.320;2023-12-28T02:02:59;98318.09;;;3.35;100.00
20115;BME280;10218;42.874;25.320;2023-12-28T02:05:27;98319.75;;;3.36;100.00
20115;BME280;10218;42.874;25.320;2023-12-28T02:07:55;98314.00;;;3.43;100.00
20115;BME280;10218;42.874;25.320;2023-12-28T02:10:23;98313.16;;;3.56;100.00
20115;BME280;10218;42.874;25.320;2023-12-28T02:12:51;98313.50;;;3.24;100.00
20115;BME280;10218;42.874;25.320;2023-12-28T02:15:21;98324.53;;;3.17;100.00
20115;BME280;10218;42.874;25.320;2023-12-28T02:18:01;98319.81;;;3.22;100.00
20115;BME280;10218;42.874;25.320;2023-12-28T02:20:30;98325.16;;;2.93;100.00
20115;BME280;10218;42.874;25.320;2023-12-28T02:22:58;98325.41;;;3.03;100.00
20115;BME280;10218;42.874;25.320;2023-12-28T02:25:26;98320.62;;;2.81;100.00
20115;BME280;10218;42.874;25.320;2023-12-28T02:27:53;98315.94;;;2.72;100.00
20115;BME280;10218;42.874;25.320;2023-12-28T02:30:23;98314.78;;;2.90;100.00
20115;BME280;10218;42.874;25.320;2023-12-28T02:35:33;98301.09;;;3.39;100.00
20115;BME280;10218;42.874;25.320;2023-12-28T02:38:05;98296.91;;;3.49;100.00
20115;BME280;10218;42.874;25.320;2023-12-28T02:40:37;98293.84;;;3.55;100.00
20115;BME280;10218;42.874;25.320;2023-12-28T02:43:08;98291.88;;;3.71;100.00
20115;BME280;10218;42.874;25.320;2023-12-28T02:45:38;98279.72;;;3.69;100.00
20115;BME280;10218;42.874;25.320;2023-12-28T02:48:07;98275.69;;;3.63;100.00
20115;BME280;10218;42.874;25.320;2023-12-28T02:50:34;98260.63;;;3.51;100.00
20115;BME280;10218;42.874;25.320;2023-12-28T02:53:02;98265.91;;;3.38;100.00
20115;BME280;10218;42.874;25.320;2023-12-28T02:55:30;98284.91;;;3.17;100.00
20115;BME280;10218;42.874;25.320;2023-12-28T02:57:58;98268.09;;;3.32;100.00
20115;BME280;10218;42.874;25.320;2023-12-28T03:00:27;98264.44;;;3.47;100.00
20115;BME280;10218;42.874;25.320;2023-12-28T03:02:54;98249.16;;;3.65;100.00
20115;BME280;10218;42.874;25.320;2023-12-28T03:05:21;98259.56;;;3.93;100.00
20115;BME280;10218;42.874;25.320;2023-12-28T03:07:49;98250.84;;;3.66;100.00
20115;BME280;10218;42.874;25.320;2023-12-28T03:10:17;98252.84;;;3.50;100.00
20115;BME280;10218;42.874;25.320;2023-12-28T03:12:44;98255.63;;;3.34;100.00
20115;BME280;10218;42.874;25.320;2023-12-28T03:15:12;98253.53;;;3.39;100.00
20115;BME280;10218;42.874;25.320;2023-12-28T03:17:40;98265.44;;;3.71;100.00
20115;BME280;10218;42.874;25.320;2023-12-28T03:20:08;98247.91;;;3.70;100.00
20115;BME280;10218;42.874;25.320;2023-12-28T03:22:37;98238.47;;;3.66;100.00
20115;BME280;10218;42.874;25.320;2023-12-28T03:25:04;98241.34;;;3.63;100.00
20115;BME280;10218;42.874;25.320;2023-12-28T03:27:32;98241.97;;;3.54;100.00
20115;BME280;10218;42.874;25.320;2023-12-28T03:29:59;98239.44;;;3.65;100.00
20115;BME280;10218;42.874;25.320;2023-12-28T03:32:26;98247.28;;;3.92;100.00
20115;BME280;10218;42.874;25.320;2023-12-28T03:34:54;98247.69;;;3.86;100.00
20115;BME280;10218;42.874;25.320;2023-12-28T03:37:21;98237.88;;;3.75;100.00
20115;BME280;10218;42.874;25.320;2023-12-28T03:39:49;98248.66;;;3.98;100.00
20115;BME280;10218;42.874;25.320;2023-12-28T03:42:16;98244.75;;;3.78;100.00
20115;BME280;10218;42.874;25.320;2023-12-28T03:44:44;98243.75;;;3.54;100.00
20115;BME280;10218;42.874;25.320;2023-12-28T03:47:11;98240.03;;;3.56;100.00
20115;BME280;10218;42.874;25.320;2023-12-28T03:49:39;98252.44;;;3.29;100.00
20115;BME280;10218;42.874;25.320;2023-12-28T03:52:06;98254.69;;;3.35;100.00
20115;BME280;10218;42.874;25.320;2023-12-28T03:54:34;98233.28;;;3.52;100.00
20115;BME280;10218;42.874;25.320;2023-12-28T03:57:02;98243.66;;;3.68;100.00
20115;BME280;10218;42.874;25.320;2023-12-28T03:59:29;98259.38;;;3.57;100.00
20115;BME280;10218;42.874;25.320;2023-12-28T04:01:57;98256.31;;;3.50;100.00
20115;BME280;10218;42.874;25.320;2023-12-28T04:04:25;98256.66;;;3.58;100.00
20115;BME280;10218;42.874;25.320;2023-12-28T04:06:52;98251.69;;;3.27;100.00
20115;BME280;10218;42.874;25.320;2023-12-28T04:09:19;98253.19;;;3.04;100.00
20115;BME280;10218;42.874;25.320;2023-12-28T04:11:46;98260.59;;;3.12;100.00
20115;BME280;10218;42.874;25.320;2023-12-28T04:14:14;98260.44;;;3.00;100.00
20115;BME280;10218;42.874;25.320;2023-12-28T04:16:41;98260.31;;;2.89;100.00
20115;BME280;10218;42.874;25.320;2023-12-28T04:19:08;98258.41;;;2.91;100.00
20115;BME280;10218;42.874;25.320;2023-12-28T04:21:35;98249.50;;;3.07;100.00
20115;BME280;10218;42.874;25.320;2023-12-28T04:24:04;98257.00;;;2.86;100.00
20115;BME280;10218;42.874;25.320;2023-12-28T04:26:31;98253.75;;;2.68;100.00
20115;BME280;10218;42.874;25.320;2023-12-28T04:29:00;98259.22;;;2.51;100.00
20115;BME280;10218;42.874;25.320;2023-12-28T04:31:27;98256.50;;;2.52;100.00
20115;BME280;10218;42.874;25.320;2023-12-28T04:33:55;98243.50;;;2.35;100.00
20115;BME280;10218;42.874;25.320;2023-12-28T04:36:22;98260.19;;;2.64;100.00
20115;BME280;10218;42.874;25.320;2023-12-28T04:38:49;98261.78;;;2.52;100.00
20115;BME280;10218;42.874;25.320;2023-12-28T04:41:17;98251.12;;;2.40;100.00
20115;BME280;10218;42.874;25.320;2023-12-28T04:43:44;98270.53;;;2.25;100.00
20115;BME280;10218;42.874;25.320;2023-12-28T04:46:11;98274.78;;;2.27;100.00
20115;BME280;10218;42.874;25.320;2023-12-28T04:48:39;98274.31;;;2.21;100.00
20115;BME280;10218;42.874;25.320;2023-12-28T04:51:07;98284.28;;;2.44;100.00
20115;BME280;10218;42.874;25.320;2023-12-28T04:53:35;98279.22;;;2.27;100.00
20115;BME280;10218;42.874;25.320;2023-12-28T04:56:02;98278.34;;;2.40;100.00
20115;BME280;10218;42.874;25.320;2023-12-28T04:58:29;98272.50;;;2.35;100.00
20115;BME280;10218;42.874;25.320;2023-12-28T05:00:56;98277.34;;;2.43;100.00
20115;BME280;10218;42.874;25.320;2023-12-28T05:03:24;98276.00;;;2.07;100.00
20115;BME280;10218;42.874;25.320;2023-12-28T05:05:52;98271.00;;;2.03;100.00
20115;BME280;10218;42.874;25.320;2023-12-28T05:08:19;98280.34;;;2.23;100.00
20115;BME280;10218;42.874;25.320;2023-12-28T05:10:46;98268.81;;;2.09;100.00
20115;BME280;10218;42.874;25.320;2023-12-28T05:13:14;98275.91;;;2.23;100.00
20115;BME280;10218;42.874;25.320;2023-12-28T05:15:41;98274.88;;;2.26;100.00
20115;BME280;10218;42.874;25.320;2023-12-28T05:18:09;98270.81;;;2.20;100.00
20115;BME280;10218;42.874;25.320;2023-12-28T05:20:36;98262.44;;;2.56;100.00
20115;BME280;10218;42.874;25.320;2023-12-28T05:23:03;98256.78;;;2.62;100.00
20115;BME280;10218;42.874;25.320;2023-12-28T05:25:31;98249.34;;;2.95;100.00
20115;BME280;10218;42.874;25.320;2023-12-28T05:27:59;98256.00;;;2.74;100.00
20115;BME280;10218;42.874;25.320;2023-12-28T05:30:26;98260.22;;;2.77;100.00
20115;BME280;10218;42.874;25.320;2023-12-28T05:32:53;98268.06;;;2.78;100.00
20115;BME280;10218;42.874;25.320;2023-12-28T05:35:20;98268.44;;;2.72;100.00
20115;BME280;10218;42.874;25.320;2023-12-28T05:37:47;98259.59;;;2.73;100.00
20115;BME280;10218;42.874;25.320;2023-12-28T05:40:15;98256.59;;;2.37;100.00
20115;BME280;10218;42.874;25.320;2023-12-28T05:42:42;98264.72;;;2.48;100.00
20115;BME280;10218;42.874;25.320;2023-12-28T05:45:09;98260.03;;;2.80;100.00
20115;BME280;10218;42.874;25.320;2023-12-28T05:47:37;98260.97;;;2.93;100.00
20115;BME280;10218;42.874;25.320;2023-12-28T05:50:04;98256.16;;;2.85;100.00
20115;BME280;10218;42.874;25.320;2023-12-28T05:52:33;98256.00;;;2.60;100.00
20115;BME280;10218;42.874;25.320;2023-12-28T05:55:00;98260.56;;;2.58;100.00
20115;BME280;10218;42.874;25.320;2023-12-28T05:57:27;98255.00;;;2.48;100.00
20115;BME280;10218;42.874;25.320;2023-12-28T06:00:00;98249.75;;;2.75;100.00
20115;BME280;10218;42.874;25.320;2023-12-28T06:02:27;98258.00;;;2.56;100.00
20115;BME280;10218;42.874;25.320;2023-12-28T06:04:55;98255.66;;;2.52;100.00
20115;BME280;10218;42.874;25.320;2023-12-28T06:07:23;98255.91;;;2.62;100.00
20115;BME280;10218;42.874;25.320;2023-12-28T06:09:50;98242.53;;;2.79;100.00
20115;BME280;10218;42.874;25.320;2023-12-28T06:12:18;98255.72;;;3.06;100.00
20115;BME280;10218;42.874;25.320;2023-12-28T06:14:45;98256.78;;;3.03;100.00
20115;BME280;10218;42.874;25.320;2023-12-28T06:17:13;98251.00;;;2.84;100.00
20115;BME280;10218;42.874;25.320;2023-12-28T06:19:42;98253.06;;;3.20;100.00
20115;BME280;10218;42.874;25.320;2023-12-28T06:22:09;98254.87;;;3.05;100.00
20115;BME280;10218;42.874;25.320;2023-12-28T06:24:39;98251.12;;;2.54;100.00
20115;BME280;10218;42.874;25.320;2023-12-28T06:27:07;98258.31;;;2.38;100.00
20115;BME280;10218;42.874;25.320;2023-12-28T06:29:34;98259.03;;;2.54;100.00
20115;BME280;10218;42.874;25.320;2023-12-28T06:32:01;98264.44;;;2.38;100.00
20115;BME280;10218;42.874;25.320;2023-12-28T06:34:29;98258.97;;;2.13;100.00
20115;BME280;10218;42.874;25.320;2023-12-28T06:36:56;98275.91;;;2.37;100.00
20115;BME280;10218;42.874;25.320;2023-12-28T06:39:23;98266.38;;;2.63;100.00
20115;BME280;10218;42.874;25.320;2023-12-28T06:41:51;98266.13;;;2.53;100.00
20115;BME280;10218;42.874;25.320;2023-12-28T06:44:18;98257.41;;;2.66;100.00
20115;BME280;10218;42.874;25.320;2023-12-28T06:46:45;98262.41;;;2.84;100.00
20115;BME280;10218;42.874;25.320;2023-12-28T06:49:13;98266.81;;;2.70;100.00
20115;BME280;10218;42.874;25.320;2023-12-28T06:51:40;98262.56;;;2.81;100.00
20115;BME280;10218;42.874;25.320;2023-12-28T06:54:09;98256.44;;;2.81;100.00
20115;BME280;10218;42.874;25.320;2023-12-28T06:56:36;98263.69;;;2.91;100.00
20115;BME280;10218;42.874;25.320;2023-12-28T06:59:03;98258.22;;;3.61;100.00
20115;BME280;10218;42.874;25.320;2023-12-28T07:01:30;98252.34;;;5.31;100.00
20115;BME280;10218;42.874;25.320;2023-12-28T07:03:58;98259.06;;;5.83;100.00
20115;BME280;10218;42.874;25.320;2023-12-28T07:06:27;98251.00;;;8.13;100.00
20115;BME280;10218;42.874;25.320;2023-12-28T07:08:56;98247.50;;;9.54;100.00
20115;BME280;10218;42.874;25.320;2023-12-28T07:11:23;98252.12;;;9.90;100.00
20115;BME280;10218;42.874;25.320;2023-12-28T07:13:50;98242.88;;;9.84;100.00
20115;BME280;10218;42.874;25.320;2023-12-28T07:16:17;98247.63;;;9.52;100.00
20115;BME280;10218;42.874;25.320;2023-12-28T07:18:47;98246.00;;;12.26;70.85
20115;BME280;10218;42.874;25.320;2023-12-28T07:21:18;98248.28;;;10.78;88.09
20115;BME280;10218;42.874;25.320;2023-12-28T07:23:46;98244.47;;;11.17;85.83
20115;BME280;10218;42.874;25.320;2023-12-28T07:26:16;98233.81;;;11.52;80.57
20115;BME280;10218;42.874;25.320;2023-12-28T07:28:44;98226.00;;;12.12;67.83
20115;BME280;10218;42.874;25.320;2023-12-28T07:31:24;98228.09;;;12.26;73.03
20115;BME280;10218;42.874;25.320;2023-12-28T07:33:52;98230.00;;;12.34;68.82
20115;BME280;10218;42.874;25.320;2023-12-28T07:36:20;98230.31;;;12.57;68.03
20115;BME280;10218;42.874;25.320;2023-12-28T07:38:47;98224.87;;;13.08;59.62
20115;BME280;10218;42.874;25.320;2023-12-28T07:41:14;98226.53;;;12.41;60.29
20115;BME280;10218;42.874;25.320;2023-12-28T07:43:42;98220.84;;;13.62;58.57
20115;BME280;10218;42.874;25.320;2023-12-28T07:46:09;98221.84;;;13.03;59.67
20115;BME280;10218;42.874;25.320;2023-12-28T07:48:36;98215.63;;;14.58;53.87
20115;BME280;10218;42.874;25.320;2023-12-28T07:51:04;98216.34;;;14.99;51.87
20115;BME280;10218;42.874;25.320;2023-12-28T07:53:32;98218.13;;;15.23;52.01
20115;BME280;10218;42.874;25.320;2023-12-28T07:56:00;98209.03;;;16.00;48.15
20115;BME280;10218;42.874;25.320;2023-12-28T07:58:29;98217.78;;;17.06;44.20
20115;BME280;10218;42.874;25.320;2023-12-28T08:00:56;98218.25;;;16.29;48.30
20115;BME280;10218;42.874;25.320;2023-12-28T08:03:23;98225.59;;;15.35;47.29
20115;BME280;10218;42.874;25.320;2023-12-28T08:05:50;98223.31;;;16.09;45.98
20115;BME280;10218;42.874;25.320;2023-12-28T08:08:17;98218.50;;;14.57;48.03
20115;BME280;10218;42.874;25.320;2023-12-28T08:10:45;98214.91;;;16.79;45.32
20115;BME280;10218;42.874;25.320;2023-12-28T08:13:12;98212.03;;;17.45;43.54
20115;BME280;10218;42.874;25.320;2023-12-28T08:15:39;98215.41;;;17.33;43.82
20115;BME280;10218;42.874;25.320;2023-12-28T08:18:07;98223.38;;;16.76;45.02
20115;BME280;10218;42.874;25.320;2023-12-28T08:20:34;98209.69;;;17.42;43.31
20115;BME280;10218;42.874;25.320;2023-12-28T08:23:04;98211.25;;;18.09;42.71
20115;BME280;10218;42.874;25.320;2023-12-28T08:25:32;98209.81;;;17.34;42.75
20115;BME280;10218;42.874;25.320;2023-12-28T08:28:00;98203.81;;;19.89;39.86
20115;BME280;10218;42.874;25.320;2023-12-28T08:30:27;98205.28;;;17.20;42.89
20115;BME280;10218;42.874;25.320;2023-12-28T08:32:54;98205.81;;;18.23;42.01
20115;BME280;10218;42.874;25.320;2023-12-28T08:35:21;98193.44;;;17.93;42.00
20115;BME280;10218;42.874;25.320;2023-12-28T08:37:48;98184.50;;;19.51;39.60
20115;BME280;10218;42.874;25.320;2023-12-28T08:40:17;98192.53;;;19.79;38.16
20115;BME280;10218;42.874;25.320;2023-12-28T08:42:47;98196.19;;;18.70;40.25
20115;BME280;10218;42.874;25.320;2023-12-28T08:45:14;98188.69;;;21.31;37.14
20115;BME280;10218;42.874;25.320;2023-12-28T08:47:41;98188.63;;;20.21;37.91
20115;BME280;10218;42.874;25.320;2023-12-28T08:50:09;98188.78;;;20.79;36.47
20115;BME280;10218;42.874;25.320;2023-12-28T08:52:36;98183.16;;;22.21;34.33
20115;BME280;10218;42.874;25.320;2023-12-28T08:55:05;98191.47;;;23.36;32.78
20115;BME280;10218;42.874;25.320;2023-12-28T08:57:32;98168.75;;;22.63;32.29
20115;BME280;10218;42.874;25.320;2023-12-28T09:00:01;98177.66;;;22.27;33.12
20115;BME280;10218;42.874;25.320;2023-12-28T09:02:30;98171.47;;;22.88;32.94
20115;BME280;10218;42.874;25.320;2023-12-28T09:05:00;98170.88;;;22.36;32.86
20115;BME280;10218;42.874;25.320;2023-12-28T09:07:27;98158.13;;;23.16;32.23
20115;BME280;10218;42.874;25.320;2023-12-28T09:09:55;98157.78;;;24.20;31.23
20115;BME280;10218;42.874;25.320;2023-12-28T09:12:22;98156.78;;;23.73;31.08
20115;BME280;10218;42.874;25.320;2023-12-28T09:14:49;98150.06;;;23.58;32.21
20115;BME280;10218;42.874;25.320;2023-12-28T09:17:23;98148.97;;;20.00;36.48
20115;BME280;10218;42.874;25.320;2023-12-28T09:19:50;98141.09;;;21.03;35.87
20115;BME280;10218;42.874;25.320;2023-12-28T09:22:17;98135.38;;;22.68;33.82
20115;BME280;10218;42.874;25.320;2023-12-28T09:24:45;98145.34;;;24.83;31.33
20115;BME280;10218;42.874;25.320;2023-12-28T09:27:12;98142.75;;;25.96;29.39
20115;BME280;10218;42.874;25.320;2023-12-28T09:29:39;98132.72;;;23.04;32.08
20115;BME280;10218;42.874;25.320;2023-12-28T09:32:06;98141.50;;;22.88;32.31
20115;BME280;10218;42.874;25.320;2023-12-28T09:34:34;98132.66;;;23.40;31.22
20115;BME280;10218;42.874;25.320;2023-12-28T09:37:01;98133.37;;;23.36;31.99
20115;BME280;10218;42.874;25.320;2023-12-28T09:39:28;98126.41;;;26.01;29.15
20115;BME280;10218;42.874;25.320;2023-12-28T09:42:00;98115.62;;;24.86;30.36
20115;BME280;10218;42.874;25.320;2023-12-28T09:44:31;98101.75;;;23.76;31.10
20115;BME280;10218;42.874;25.320;2023-12-28T09:47:01;98105.16;;;25.91;28.63
20115;BME280;10218;42.874;25.320;2023-12-28T09:49:30;98105.31;;;25.68;28.76
20115;BME280;10218;42.874;25.320;2023-12-28T09:51:58;98101.53;;;24.43;29.55
20115;BME280;10218;42.874;25.320;2023-12-28T09:54:25;98099.28;;;25.54;29.09
20115;BME280;10218;42.874;25.320;2023-12-28T09:56:53;98097.72;;;23.79;29.18
20115;BME280;10218;42.874;25.320;2023-12-28T09:59:20;98103.25;;;24.95;27.76
20115;BME280;10218;42.874;25.320;2023-12-28T10:01:48;98099.12;;;25.33;28.14
20115;BME280;10218;42.874;25.320;2023-12-28T10:04:16;98089.28;;;25.77;27.15
20115;BME280;10218;42.874;25.320;2023-12-28T10:06:43;98091.81;;;25.95;27.71
20115;BME280;10218;42.874;25.320;2023-12-28T10:09:10;98087.34;;;26.77;26.23
20115;BME280;10218;42.874;25.320;2023-12-28T10:11:38;98082.72;;;26.78;26.48
20115;BME280;10218;42.874;25.320;2023-12-28T10:14:06;98080.31;;;24.85;27.93
20115;BME280;10218;42.874;25.320;2023-12-28T10:16:34;98074.25;;;23.90;29.07
20115;BME280;10218;42.874;25.320;2023-12-28T10:19:01;98051.91;;;25.09;27.89
20115;BME280;10218;42.874;25.320;2023-12-28T10:21:28;98065.06;;;25.12;27.87
20115;BME280;10218;42.874;25.320;2023-12-28T10:23:55;98046.34;;;24.69;28.01
20115;BME280;10218;42.874;25.320;2023-12-28T10:26:24;98040.28;;;26.09;26.62
20115;BME280;10218;42.874;25.320;2023-12-28T10:28:59;98035.97;;;24.94;27.56
20115;BME280;10218;42.874;25.320;2023-12-28T10:31:30;98029.38;;;22.66;29.81
20115;BME280;10218;42.874;25.320;2023-12-28T10:33:58;98025.56;;;26.48;26.36
20115;BME280;10218;42.874;25.320;2023-12-28T10:36:27;98016.97;;;22.88;29.69
20115;BME280;10218;42.874;25.320;2023-12-28T10:38:57;98003.97;;;22.72;31.03
20115;BME280;10218;42.874;25.320;2023-12-28T10:41:33;98004.78;;;22.36;31.34
20115;BME280;10218;42.874;25.320;2023-12-28T10:44:04;97991.88;;;22.50;30.92
20115;BME280;10218;42.874;25.320;2023-12-28T10:46:36;97999.97;;;21.70;32.32
20115;BME280;10218;42.874;25.320;2023-12-28T10:49:14;97997.47;;;22.37;31.57
20115;BME280;10218;42.874;25.320;2023-12-28T10:51:44;97987.22;;;27.18;27.12
20115;BME280;10218;42.874;25.320;2023-12-28T10:57:09;97982.53;;;25.60;27.65
20115;BME280;10218;42.874;25.320;2023-12-28T11:02:21;97958.41;;;26.46;27.00
20115;BME280;10218;42.874;25.320;2023-12-28T11:04:51;97947.84;;;25.99;28.13
20115;BME280;10218;42.874;25.320;2023-12-28T11:07:20;97945.94;;;24.48;28.78
20115;BME280;10218;42.874;25.320;2023-12-28T11:09:48;97938.78;;;27.29;26.53
20115;BME280;10218;42.874;25.320;2023-12-28T11:12:16;97944.91;;;27.63;26.33
20115;BME280;10218;42.874;25.320;2023-12-28T11:14:47;97948.53;;;25.89;27.19
20115;BME280;10218;42.874;25.320;2023-12-28T11:17:16;97934.28;;;27.77;26.03
20115;BME280;10218;42.874;25.320;2023-12-28T11:19:44;97935.22;;;28.39;25.29
20115;BME280;10218;42.874;25.320;2023-12-28T11:22:11;97926.34;;;26.46;26.20
20115;BME280;10218;42.874;25.320;2023-12-28T11:24:39;97932.88;;;26.07;27.46
20115;BME280;10218;42.874;25.320;2023-12-28T11:27:07;97920.16;;;27.58;26.41
20115;BME280;10218;42.874;25.320;2023-12-28T11:29:35;97916.12;;;26.63;27.10
20115;BME280;10218;42.874;25.320;2023-12-28T11:32:03;97904.78;;;28.56;24.43
20115;BME280;10218;42.874;25.320;2023-12-28T11:34:33;97899.34;;;26.81;27.95
20115;BME280;10218;42.874;25.320;2023-12-28T11:37:04;97900.97;;;28.10;25.35
20115;BME280;10218;42.874;25.320;2023-12-28T11:39:35;97890.47;;;25.71;27.85
20115;BME280;10218;42.874;25.320;2023-12-28T11:42:07;97888.88;;;27.00;27.04
20115;BME280;10218;42.874;25.320;2023-12-28T11:44:38;97891.47;;;26.20;27.66
20115;BME280;10218;42.874;25.320;2023-12-28T11:47:13;97887.22;;;26.29;27.41
20115;BME280;10218;42.874;25.320;2023-12-28T11:49:41;97886.50;;;28.20;25.48
20115;BME280;10218;42.874;25.320;2023-12-28T11:52:09;97886.66;;;28.03;25.83
20115;BME280;10218;42.874;25.320;2023-12-28T11:54:37;97883.50;;;28.99;25.24
20115;BME280;10218;42.874;25.320;2023-12-28T11:57:05;97878.75;;;26.79;26.91
20115;BME280;10218;42.874;25.320;2023-12-28T11:59:32;97872.78;;;29.12;24.92
20115;BME280;10218;42.874;25.320;2023-12-28T12:01:59;97872.75;;;28.92;24.52
20115;BME280;10218;42.874;25.320;2023-12-28T12:04:26;97871.94;;;28.24;24.36
20115;BME280;10218;42.874;25.320;2023-12-28T12:06:53;97874.72;;;27.77;24.85
20115;BME280;10218;42.874;25.320;2023-12-28T12:09:21;97866.50;;;28.39;24.95
20115;BME280;10218;42.874;25.320;2023-12-28T12:11:49;97874.31;;;28.68;23.81
20115;BME280;10218;42.874;25.320;2023-12-28T12:14:18;97868.59;;;30.11;22.66
20115;BME280;10218;42.874;25.320;2023-12-28T12:16:46;97875.34;;;30.49;22.29
20115;BME280;10218;42.874;25.320;2023-12-28T12:19:13;97880.75;;;29.85;22.53
20115;BME280;10218;42.874;25.320;2023-12-28T12:21:40;97875.37;;;27.26;24.65
20115;BME280;10218;42.874;25.320;2023-12-28T12:24:10;97863.31;;;28.63;22.76
20115;BME280;10218;42.874;25.320;2023-12-28T12:26:37;97866.28;;;26.66;24.24
20115;BME280;10218;42.874;25.320;2023-12-28T12:29:08;97863.78;;;28.44;23.82
20115;BME280;10218;42.874;25.320;2023-12-28T12:31:35;97857.63;;;28.95;23.61
20115;BME280;10218;42.874;25.320;2023-12-28T12:34:05;97860.56;;;28.68;23.61
20115;BME280;10218;42.874;25.320;2023-12-28T12:36:32;97864.94;;;28.59;23.70
20115;BME280;10218;42.874;25.320;2023-12-28T12:39:00;97871.31;;;27.33;24.94
20115;BME280;10218;42.874;25.320;2023-12-28T12:41:27;97861.66;;;26.23;25.67
20115;BME280;10218;42.874;25.320;2023-12-28T12:43:55;97862.84;;;26.54;25.40
20115;BME280;10218;42.874;25.320;2023-12-28T12:46:23;97873.00;;;26.80;25.39
20115;BME280;10218;42.874;25.320;2023-12-28T12:48:58;97860.72;;;25.96;26.70
20115;BME280;10218;42.874;25.320;2023-12-28T12:51:27;97856.97;;;26.67;25.71
20115;BME280;10218;42.874;25.320;2023-12-28T12:53:58;97865.84;;;25.21;26.70
20115;BME280;10218;42.874;25.320;2023-12-28T12:56:26;97856.25;;;23.93;27.95
20115;BME280;10218;42.874;25.320;2023-12-28T12:58:54;97858.84;;;22.35;29.66
20115;BME280;10218;42.874;25.320;2023-12-28T13:01:23;97863.78;;;19.77;33.13
20115;BME280;10218;42.874;25.320;2023-12-28T13:03:50;97863.06;;;18.78;34.77